createdAt,value
2023-01-11T00:02:29.833Z,8.15
2023-01-11T00:35:33.125Z,8.36
2023-01-11T01:04:14.849Z,8.45
2023-01-11T01:32:56.198Z,8.71
2023-01-11T02:01:46.360Z,9
2023-01-11T02:30:15.231Z,9.02
2023-01-11T02:59:12.672Z,9.1
2023-01-11T03:28:00.703Z,9.15
2023-01-11T03:56:47.822Z,9.35
2023-01-11T04:25:34.858Z,9.38
2023-01-11T04:54:21.615Z,9.33
2023-01-11T05:23:06.773Z,9.27
2023-01-11T05:51:52.481Z,9.49
2023-01-11T06:20:38.986Z,9.68
2023-01-11T06:49:30.925Z,9.8
2023-01-11T07:18:16.791Z,10.01
2023-01-11T07:46:55.324Z,10.17
2023-01-11T08:15:33.084Z,10.41
2023-01-11T08:44:33.221Z,10.68
2023-01-11T09:12:41.948Z,10.92
2023-01-11T09:41:09.274Z,11
2023-01-11T10:38:06.064Z,10.64
2023-01-11T11:06:28.217Z,10.44
2023-01-11T11:35:06.209Z,10.35
2023-01-11T12:03:38.570Z,10.29
2023-01-11T12:32:21.697Z,10.44
2023-01-11T13:00:57.688Z,10.47
2023-01-11T13:29:23.439Z,10.63
2023-01-11T13:57:46.032Z,10.47
2023-01-11T14:26:19.323Z,10.37
2023-01-11T14:54:40.113Z,10.3
2023-01-11T15:23:10.521Z,10.02
2023-01-11T15:51:39.316Z,9.67
2023-01-11T16:19:59.476Z,9.41
2023-01-11T16:48:31.900Z,9.58
2023-01-11T17:17:15.947Z,9.53
2023-01-11T17:45:41.569Z,9.27
2023-01-11T18:14:12.248Z,9.08
2023-01-11T18:42:41.993Z,8.69
2023-01-11T19:10:49.871Z,8.4
2023-01-11T19:39:27.435Z,7.99
2023-01-11T20:07:57.963Z,8
2023-01-11T20:36:35.852Z,8.07
2023-01-11T21:05:21.484Z,7.99
2023-01-11T21:33:47.892Z,7.98
2023-01-11T22:02:21.095Z,7.81
2023-01-11T22:31:00.244Z,7.63
2023-01-11T22:59:26.795Z,7.76
2023-01-11T23:28:14.107Z,7.69
2023-01-11T23:56:44.305Z,7.65
